createdAt,value
2017-10-22T00:00:19.887Z,18.70
2017-10-22T00:00:53.774Z,17.80
2017-10-22T00:01:27.628Z,17.83
2017-10-22T00:02:01.581Z,17.45
2017-10-22T00:02:35.510Z,18.58
2017-10-22T00:03:09.379Z,20.67
2017-10-22T00:03:43.341Z,18.80
2017-10-22T00:04:17.240Z,19.48
2017-10-22T00:04:51.243Z,18.55
2017-10-22T00:05:25.643Z,19.70
2017-10-22T00:05:59.697Z,16.85
2017-10-22T00:06:33.874Z,20.50
2017-10-22T00:07:07.943Z,19.10
2017-10-22T00:07:41.799Z,18.33
2017-10-22T00:08:15.694Z,20.50
2017-10-22T00:08:49.637Z,19.17
2017-10-22T00:09:23.724Z,18.10
2017-10-22T00:09:57.870Z,19.33
2017-10-22T00:10:31.782Z,19.37
2017-10-22T00:11:05.657Z,20.25
2017-10-22T00:11:39.518Z,19.30
2017-10-22T00:12:14.340Z,20.55
2017-10-22T00:12:48.211Z,21.00
2017-10-22T00:13:22.121Z,20.52
2017-10-22T00:13:55.998Z,18.58
2017-10-22T00:14:29.883Z,18.50
2017-10-22T00:15:03.781Z,19.92
2017-10-22T00:15:37.684Z,18.62
2017-10-22T00:16:11.560Z,19.35
2017-10-22T00:16:45.492Z,18.85
2017-10-22T00:17:19.362Z,19.50
2017-10-22T00:17:53.290Z,20.00
2017-10-22T00:18:27.173Z,19.87
2017-10-22T00:19:01.044Z,19.30
2017-10-22T00:19:34.963Z,21.10
2017-10-22T00:20:08.828Z,20.45
2017-10-22T00:20:42.710Z,19.30
2017-10-22T00:21:16.596Z,18.48
2017-10-22T00:21:50.471Z,19.70
2017-10-22T00:22:24.344Z,20.65
2017-10-22T00:22:58.381Z,18.85
2017-10-22T00:23:32.262Z,21.25
2017-10-22T00:24:06.123Z,20.20
2017-10-22T00:24:39.998Z,20.95
2017-10-22T00:25:14.445Z,19.95
2017-10-22T00:25:48.409Z,21.65
2017-10-22T00:26:22.291Z,20.52
2017-10-22T00:26:56.182Z,20.40
2017-10-22T00:27:30.320Z,19.62
2017-10-22T00:28:04.184Z,19.90
2017-10-22T00:28:38.214Z,19.73
2017-10-22T00:29:12.308Z,20.08
2017-10-22T00:29:46.185Z,20.92
2017-10-22T00:30:20.203Z,21.33
2017-10-22T00:30:54.083Z,19.75
2017-10-22T00:31:27.955Z,20.50
2017-10-22T00:32:01.827Z,19.27
2017-10-22T00:32:35.702Z,19.73
2017-10-22T00:33:09.577Z,19.55
2017-10-22T00:33:43.574Z,20.67
2017-10-22T00:34:17.433Z,19.73
2017-10-22T00:34:51.311Z,21.00
2017-10-22T00:35:25.181Z,19.90
2017-10-22T00:35:59.055Z,20.73
2017-10-22T00:36:33.156Z,21.85
2017-10-22T00:37:07.258Z,20.95
2017-10-22T00:37:41.178Z,20.37
2017-10-22T00:38:15.060Z,19.92
2017-10-22T00:38:49.332Z,20.88
2017-10-22T00:39:23.292Z,20.35
2017-10-22T00:39:58.056Z,19.58
2017-10-22T00:40:31.948Z,20.55
2017-10-22T00:41:05.822Z,21.05
2017-10-22T00:41:39.691Z,20.45
2017-10-22T00:42:13.562Z,20.23
2017-10-22T00:42:47.440Z,21.25
2017-10-22T00:43:21.341Z,20.15
2017-10-22T00:43:55.211Z,21.10
2017-10-22T00:44:29.086Z,21.80
2017-10-22T00:45:02.954Z,19.62
2017-10-22T00:45:36.874Z,20.05
2017-10-22T00:46:10.764Z,21.50
2017-10-22T00:46:44.657Z,20.77
2017-10-22T00:47:18.532Z,22.37
2017-10-22T00:47:52.439Z,21.40
2017-10-22T00:48:26.322Z,19.30
2017-10-22T00:49:00.321Z,21.17
2017-10-22T00:49:34.194Z,21.00
2017-10-22T00:50:08.078Z,21.67
2017-10-22T00:50:41.986Z,21.33
2017-10-22T00:51:15.872Z,21.48
2017-10-22T00:51:49.771Z,22.13
2017-10-22T00:52:24.023Z,21.42
2017-10-22T00:52:58.041Z,21.10
2017-10-22T00:53:33.234Z,20.85
2017-10-22T00:54:08.628Z,21.58
2017-10-22T00:54:42.758Z,20.62
2017-10-22T00:55:16.818Z,21.52
2017-10-22T00:55:50.744Z,21.85
2017-10-22T00:56:24.655Z,21.65
2017-10-22T00:56:58.543Z,22.25
2017-10-22T00:57:32.407Z,21.02
2017-10-22T00:58:06.286Z,21.15
2017-10-22T00:58:40.149Z,22.13
2017-10-22T00:59:14.048Z,22.15
2017-10-22T00:59:47.913Z,21.67
2017-10-22T01:00:21.779Z,22.52
2017-10-22T01:00:55.815Z,22.48
2017-10-22T01:01:29.693Z,21.42
2017-10-22T01:02:03.873Z,21.65
2017-10-22T01:02:37.752Z,21.83
2017-10-22T01:03:11.639Z,22.20
2017-10-22T01:03:45.500Z,21.70
2017-10-22T01:04:19.654Z,21.33
2017-10-22T01:04:53.661Z,21.10
2017-10-22T01:05:27.533Z,22.67
2017-10-22T01:06:01.649Z,21.33
2017-10-22T01:06:35.523Z,22.70
2017-10-22T01:07:09.426Z,21.70
2017-10-22T01:07:43.847Z,23.30
2017-10-22T01:08:17.720Z,22.00
2017-10-22T01:08:51.596Z,21.25
2017-10-22T01:09:25.470Z,22.37
2017-10-22T01:09:59.337Z,22.85
2017-10-22T01:10:33.284Z,21.92
2017-10-22T01:11:07.153Z,21.62
2017-10-22T01:11:41.082Z,20.33
2017-10-22T01:12:14.973Z,22.35
2017-10-22T01:12:48.829Z,21.85
2017-10-22T01:13:22.711Z,22.45
2017-10-22T01:13:56.588Z,22.20
2017-10-22T01:14:33.024Z,21.70
2017-10-22T01:15:06.981Z,22.77
2017-10-22T01:15:41.714Z,20.95
2017-10-22T01:16:15.707Z,22.62
2017-10-22T01:16:49.690Z,23.08
2017-10-22T01:17:23.910Z,22.42
2017-10-22T01:17:57.890Z,23.38
2017-10-22T01:18:31.773Z,23.23
2017-10-22T01:19:05.656Z,22.33
2017-10-22T01:19:39.518Z,23.10
2017-10-22T01:20:13.398Z,22.33
2017-10-22T01:20:47.273Z,22.83
2017-10-22T01:21:21.132Z,24.17
2017-10-22T01:21:55.028Z,24.37
2017-10-22T01:22:28.910Z,21.55
2017-10-22T01:23:02.800Z,22.35
2017-10-22T01:23:36.695Z,21.60
2017-10-22T01:24:10.604Z,22.08
2017-10-22T01:24:44.499Z,22.00
2017-10-22T01:25:18.593Z,22.30
2017-10-22T01:25:52.465Z,22.83
2017-10-22T01:26:26.337Z,22.33
2017-10-22T01:27:00.223Z,23.75
2017-10-22T01:27:34.131Z,25.00
2017-10-22T01:28:08.474Z,23.48
2017-10-22T01:28:42.380Z,22.60
2017-10-22T01:29:16.256Z,25.15
2017-10-22T01:29:50.121Z,22.08
2017-10-22T01:30:24.008Z,22.90
2017-10-22T01:30:57.872Z,24.58
2017-10-22T01:31:31.756Z,23.38
2017-10-22T01:32:05.643Z,25.17
2017-10-22T01:32:39.522Z,22.90
2017-10-22T01:33:13.416Z,23.17
2017-10-22T01:33:47.442Z,23.52
2017-10-22T01:34:21.314Z,24.80
2017-10-22T01:34:55.183Z,23.55
2017-10-22T01:35:29.053Z,23.92
2017-10-22T01:36:02.938Z,22.55
2017-10-22T01:36:36.815Z,22.00
2017-10-22T01:37:10.691Z,21.52
2017-10-22T01:37:44.604Z,24.95
2017-10-22T01:38:18.585Z,22.58
2017-10-22T01:38:52.501Z,21.75
2017-10-22T01:39:26.376Z,23.70
2017-10-22T01:40:00.247Z,22.37
2017-10-22T01:40:34.388Z,22.17
2017-10-22T01:41:08.271Z,24.08
2017-10-22T01:41:42.271Z,22.05
2017-10-22T01:42:16.155Z,21.05
2017-10-22T01:42:50.035Z,23.20
2017-10-22T01:43:23.895Z,20.67
2017-10-22T01:43:57.752Z,21.87
2017-10-22T01:44:31.643Z,21.23
2017-10-22T01:45:05.524Z,21.17
2017-10-22T01:45:39.395Z,20.60
2017-10-22T01:46:13.266Z,20.55
2017-10-22T01:46:47.200Z,21.50
2017-10-22T01:47:21.088Z,20.23
2017-10-22T01:47:55.049Z,21.62
2017-10-22T01:48:28.937Z,20.35
2017-10-22T01:49:02.807Z,19.85
2017-10-22T01:49:36.682Z,20.23
2017-10-22T01:50:10.697Z,20.00
2017-10-22T01:50:44.567Z,21.37
2017-10-22T01:51:18.441Z,21.65
2017-10-22T01:51:52.322Z,19.45
2017-10-22T01:52:26.213Z,20.33
2017-10-22T01:53:00.100Z,20.95
2017-10-22T01:53:33.993Z,20.00
2017-10-22T01:54:07.875Z,20.70
2017-10-22T01:54:41.739Z,18.23
2017-10-22T01:55:15.638Z,20.65
2017-10-22T01:55:49.507Z,18.37
2017-10-22T01:56:23.403Z,18.62
2017-10-22T01:56:57.287Z,20.67
2017-10-22T01:57:31.191Z,19.98
2017-10-22T01:58:06.607Z,17.75
2017-10-22T01:58:40.542Z,18.40
2017-10-22T01:59:14.815Z,19.87
2017-10-22T01:59:48.694Z,19.95
2017-10-22T02:00:22.573Z,18.73
2017-10-22T02:00:56.440Z,18.20
2017-10-22T02:01:30.519Z,17.98
2017-10-22T02:02:04.395Z,17.42
2017-10-22T02:02:38.292Z,16.98
2017-10-22T02:03:12.157Z,18.27
2017-10-22T02:03:46.121Z,18.58
2017-10-22T02:04:19.991Z,18.08
2017-10-22T02:04:53.846Z,17.90
2017-10-22T02:05:27.709Z,17.65
2017-10-22T02:06:01.625Z,18.05
2017-10-22T02:06:35.492Z,19.33
2017-10-22T02:07:09.363Z,17.77
2017-10-22T02:07:43.262Z,17.73
2017-10-22T02:08:17.126Z,18.48
2017-10-22T02:08:51.003Z,17.67
2017-10-22T02:09:24.900Z,17.42
2017-10-22T02:09:58.758Z,17.40
2017-10-22T02:10:32.621Z,18.05
2017-10-22T02:11:06.487Z,18.37
2017-10-22T02:11:40.363Z,18.20
2017-10-22T02:12:14.242Z,17.10
2017-10-22T02:12:48.115Z,17.75
2017-10-22T02:13:22.005Z,18.27
2017-10-22T02:13:55.864Z,17.80
2017-10-22T02:14:29.738Z,18.40
2017-10-22T02:15:03.603Z,17.87
2017-10-22T02:15:37.470Z,17.35
2017-10-22T02:16:11.615Z,18.45
2017-10-22T02:16:45.612Z,17.10
2017-10-22T02:17:19.479Z,17.83
2017-10-22T02:17:53.608Z,18.00
2017-10-22T02:18:27.465Z,17.80
2017-10-22T02:19:01.345Z,16.83
2017-10-22T02:19:35.227Z,18.65
2017-10-22T02:20:09.118Z,17.05
2017-10-22T02:20:42.996Z,17.27
2017-10-22T02:21:16.855Z,17.12
2017-10-22T02:21:50.719Z,16.90
2017-10-22T02:22:24.602Z,17.02
2017-10-22T02:22:58.497Z,17.48
2017-10-22T02:23:32.392Z,17.00
2017-10-22T02:24:06.747Z,16.92
2017-10-22T02:24:40.622Z,17.67
2017-10-22T02:25:14.503Z,16.80
2017-10-22T02:25:48.457Z,17.50
2017-10-22T02:26:22.325Z,15.57
2017-10-22T02:26:56.238Z,16.17
2017-10-22T02:27:30.115Z,16.02
2017-10-22T02:28:03.990Z,16.08
2017-10-22T02:28:37.845Z,16.73
2017-10-22T02:29:11.713Z,15.65
2017-10-22T02:29:45.695Z,15.65
2017-10-22T02:30:19.818Z,14.98
2017-10-22T02:30:53.695Z,15.90
2017-10-22T02:31:27.575Z,16.90
2017-10-22T02:32:01.453Z,15.90
2017-10-22T02:32:35.326Z,15.80
2017-10-22T02:33:09.325Z,15.55
2017-10-22T02:33:43.188Z,15.02
2017-10-22T02:34:17.063Z,15.30
2017-10-22T02:34:50.948Z,14.85
2017-10-22T02:35:24.817Z,14.93
2017-10-22T02:35:58.730Z,16.05
2017-10-22T02:36:32.606Z,14.15
2017-10-22T02:37:06.516Z,14.93
2017-10-22T02:37:40.383Z,15.32
2017-10-22T02:38:14.296Z,15.70
2017-10-22T02:38:48.169Z,15.75
2017-10-22T02:39:22.038Z,15.38
2017-10-22T02:39:55.917Z,14.35
2017-10-22T02:40:29.874Z,15.45
2017-10-22T02:41:03.770Z,14.98
2017-10-22T02:41:37.819Z,15.43
2017-10-22T02:42:11.735Z,14.35
2017-10-22T02:42:45.714Z,13.73
2017-10-22T02:43:19.748Z,14.68
2017-10-22T02:43:53.622Z,15.65
2017-10-22T02:44:27.522Z,14.13
2017-10-22T02:45:01.392Z,14.63
2017-10-22T02:45:35.261Z,14.30
2017-10-22T02:46:09.304Z,13.43
2017-10-22T02:46:43.197Z,13.48
2017-10-22T02:47:17.092Z,12.35
2017-10-22T02:47:50.985Z,14.05
2017-10-22T02:48:24.880Z,13.77
2017-10-22T02:48:58.758Z,13.30
2017-10-22T02:49:32.629Z,12.52
2017-10-22T02:50:06.502Z,13.20
2017-10-22T02:50:40.381Z,12.13
2017-10-22T02:51:14.277Z,11.43
2017-10-22T02:51:48.247Z,12.23
2017-10-22T02:52:22.139Z,11.75
2017-10-22T02:52:56.022Z,11.77
2017-10-22T02:53:30.707Z,11.45
2017-10-22T02:54:04.646Z,11.70
2017-10-22T02:54:38.499Z,13.15
2017-10-22T02:55:12.392Z,11.25
2017-10-22T02:55:46.269Z,10.77
2017-10-22T02:56:20.173Z,11.27
2017-10-22T02:56:54.064Z,10.98
2017-10-22T02:57:27.925Z,10.93
2017-10-22T02:58:01.800Z,11.30
2017-10-22T02:58:35.910Z,11.30
2017-10-22T02:59:09.801Z,10.73
2017-10-22T02:59:43.678Z,10.93
2017-10-22T03:00:17.547Z,9.73
2017-10-22T03:00:51.591Z,11.65
2017-10-22T03:01:25.468Z,10.20
2017-10-22T03:01:59.344Z,9.57
2017-10-22T03:02:33.249Z,9.80
2017-10-22T03:03:07.128Z,9.80
2017-10-22T03:03:41.021Z,9.15
2017-10-22T03:04:14.928Z,9.82
2017-10-22T03:04:48.815Z,8.85
2017-10-22T03:05:22.772Z,10.48
2017-10-22T03:05:56.632Z,10.73
2017-10-22T03:06:30.510Z,10.27
2017-10-22T03:07:04.585Z,9.70
2017-10-22T03:07:38.564Z,9.98
2017-10-22T03:08:12.443Z,9.85
2017-10-22T03:08:46.316Z,9.00
2017-10-22T03:09:20.193Z,9.25
2017-10-22T03:09:54.132Z,9.70
2017-10-22T03:10:28.126Z,9.25
2017-10-22T03:11:02.100Z,9.50
2017-10-22T03:11:36.022Z,9.23
2017-10-22T03:12:09.910Z,8.90
2017-10-22T03:12:43.790Z,9.18
2017-10-22T03:13:17.705Z,8.60
2017-10-22T03:13:51.696Z,8.15
2017-10-22T03:14:25.572Z,8.45
2017-10-22T03:14:59.439Z,8.57
2017-10-22T03:15:33.522Z,8.93
2017-10-22T03:16:07.385Z,8.00
2017-10-22T03:16:41.248Z,7.78
2017-10-22T03:17:15.140Z,7.40
2017-10-22T03:17:49.004Z,8.10
2017-10-22T03:18:23.077Z,8.65
2017-10-22T03:18:56.961Z,7.82
2017-10-22T03:19:30.845Z,8.50
2017-10-22T03:20:04.714Z,8.10
2017-10-22T03:20:38.578Z,8.90
2017-10-22T03:21:12.470Z,8.27
2017-10-22T03:21:46.362Z,8.80
2017-10-22T03:22:20.430Z,8.90
2017-10-22T03:22:54.293Z,8.32
2017-10-22T03:23:28.199Z,8.63
2017-10-22T03:24:02.115Z,8.07
2017-10-22T03:24:35.984Z,8.10
2017-10-22T03:25:09.869Z,8.68
2017-10-22T03:25:43.764Z,7.90
2017-10-22T03:26:17.625Z,8.80
2017-10-22T03:26:51.526Z,8.07
2017-10-22T03:27:25.400Z,7.95
2017-10-22T03:27:59.261Z,8.15
2017-10-22T03:28:33.126Z,7.72
2017-10-22T03:29:07.096Z,8.25
2017-10-22T03:29:41.070Z,8.90
2017-10-22T03:30:14.942Z,8.07
2017-10-22T03:30:48.825Z,8.60
2017-10-22T03:31:22.880Z,8.10
2017-10-22T03:31:56.771Z,8.63
2017-10-22T03:32:30.774Z,7.72
2017-10-22T03:33:04.639Z,8.70
2017-10-22T03:33:38.504Z,8.25
2017-10-22T03:34:12.417Z,8.77
2017-10-22T03:34:46.314Z,8.55
2017-10-22T03:35:20.437Z,8.20
2017-10-22T03:35:54.529Z,8.43
2017-10-22T03:36:28.547Z,8.45
2017-10-22T03:37:02.424Z,8.15
2017-10-22T03:37:36.521Z,8.48
2017-10-22T03:38:10.529Z,8.55
2017-10-22T03:38:44.432Z,9.02
2017-10-22T03:39:18.318Z,8.32
2017-10-22T03:39:52.197Z,8.98
2017-10-22T03:40:26.092Z,9.20
2017-10-22T03:40:59.950Z,7.32
2017-10-22T03:41:33.917Z,9.68
2017-10-22T03:42:07.782Z,8.57
2017-10-22T03:42:41.663Z,8.35
2017-10-22T03:43:15.546Z,8.73
2017-10-22T03:43:49.422Z,7.97
2017-10-22T03:44:23.289Z,7.87
2017-10-22T03:44:57.262Z,8.70
2017-10-22T03:45:31.165Z,8.20
2017-10-22T03:46:05.015Z,8.35
2017-10-22T03:46:38.887Z,8.98
2017-10-22T03:47:12.843Z,7.75
2017-10-22T03:47:46.850Z,8.50
2017-10-22T03:48:20.719Z,8.77
2017-10-22T03:48:54.747Z,8.90
2017-10-22T03:49:28.617Z,9.05
2017-10-22T03:50:02.484Z,8.63
2017-10-22T03:50:36.352Z,9.40
2017-10-22T03:51:10.227Z,9.10
2017-10-22T03:51:44.119Z,8.95
2017-10-22T03:52:17.997Z,8.73
2017-10-22T03:52:51.917Z,8.43
2017-10-22T03:53:25.783Z,8.95
2017-10-22T03:53:59.656Z,9.85
2017-10-22T03:54:33.535Z,9.13
2017-10-22T03:55:07.398Z,8.88
2017-10-22T03:55:41.401Z,9.43
2017-10-22T03:56:15.268Z,9.25
2017-10-22T03:56:49.135Z,9.32
2017-10-22T03:57:23.265Z,9.50
2017-10-22T03:57:57.139Z,8.57
2017-10-22T03:58:31.058Z,8.82
2017-10-22T03:59:04.940Z,8.35
2017-10-22T03:59:39.000Z,9.15
2017-10-22T04:00:12.877Z,9.98
2017-10-22T04:00:46.945Z,9.18
2017-10-22T04:01:20.963Z,9.80
2017-10-22T04:01:54.823Z,9.95
2017-10-22T04:02:28.863Z,9.95
2017-10-22T04:03:02.729Z,8.85
2017-10-22T04:03:36.619Z,9.00
2017-10-22T04:04:10.790Z,9.60
2017-10-22T04:04:44.665Z,8.27
2017-10-22T04:05:18.547Z,11.77
2017-10-22T04:05:52.428Z,11.57
2017-10-22T04:06:26.304Z,12.32
2017-10-22T04:07:00.321Z,12.68
2017-10-22T04:07:34.198Z,10.48
2017-10-22T04:08:08.069Z,13.02
2017-10-22T04:08:41.958Z,12.75
2017-10-22T04:09:15.845Z,17.02
2017-10-22T04:09:49.756Z,19.48
2017-10-22T04:10:23.794Z,15.68
2017-10-22T04:10:57.686Z,17.50
2017-10-22T04:11:31.889Z,21.85
2017-10-22T04:12:05.939Z,26.00
2017-10-22T04:12:39.818Z,12.88
2017-10-22T04:13:13.697Z,17.83
2017-10-22T04:13:47.570Z,17.27
2017-10-22T04:14:21.565Z,13.07
2017-10-22T04:14:55.462Z,15.43
2017-10-22T04:15:29.326Z,15.07
2017-10-22T04:16:03.255Z,14.13
2017-10-22T04:16:37.129Z,11.00
2017-10-22T04:17:11.216Z,16.10
2017-10-22T04:17:45.109Z,14.68
2017-10-22T04:18:19.133Z,19.50
2017-10-22T04:18:53.014Z,27.90
2017-10-22T04:19:26.887Z,29.87
2017-10-22T04:20:00.799Z,23.95
2017-10-22T04:20:34.672Z,18.05
2017-10-22T04:21:08.631Z,18.20
2017-10-22T04:21:42.719Z,16.98
2017-10-22T04:22:16.718Z,17.85
2017-10-22T04:22:50.583Z,51.00
2017-10-22T04:23:24.609Z,34.08
2017-10-22T04:23:58.499Z,23.00
2017-10-22T04:24:32.383Z,27.52
2017-10-22T04:25:06.279Z,47.40
2017-10-22T04:25:40.160Z,23.17
2017-10-22T04:26:14.035Z,22.90
2017-10-22T04:26:47.965Z,32.00
2017-10-22T04:27:21.858Z,47.58
2017-10-22T04:27:55.752Z,30.42
2017-10-22T04:28:29.693Z,28.08
2017-10-22T04:29:03.559Z,27.35
2017-10-22T04:29:37.422Z,18.33
2017-10-22T04:30:11.356Z,14.80
2017-10-22T04:30:45.251Z,12.20
2017-10-22T04:31:19.149Z,14.95
2017-10-22T04:31:53.019Z,17.00
2017-10-22T04:32:26.914Z,24.55
2017-10-22T04:33:00.959Z,21.42
2017-10-22T04:33:34.832Z,20.30
2017-10-22T04:34:08.704Z,18.35
2017-10-22T04:34:42.600Z,34.15
2017-10-22T04:35:16.488Z,27.35
2017-10-22T04:35:50.373Z,21.58
2017-10-22T04:36:24.406Z,14.30
2017-10-22T04:36:58.269Z,13.40
2017-10-22T04:37:32.181Z,12.30
2017-10-22T04:38:06.100Z,14.63
2017-10-22T04:38:40.300Z,13.02
2017-10-22T04:39:14.192Z,10.27
2017-10-22T04:39:48.159Z,15.63
2017-10-22T04:40:22.040Z,15.98
2017-10-22T04:40:55.981Z,11.45
2017-10-22T04:41:29.839Z,14.07
2017-10-22T04:42:03.715Z,11.30
2017-10-22T04:42:37.601Z,10.88
2017-10-22T04:43:11.489Z,8.30
2017-10-22T04:43:45.369Z,7.93
2017-10-22T04:44:19.347Z,8.75
2017-10-22T04:44:53.211Z,7.53
2017-10-22T04:45:27.123Z,9.07
2017-10-22T04:46:01.004Z,8.77
2017-10-22T04:46:34.900Z,8.95
2017-10-22T04:47:08.782Z,10.40
2017-10-22T04:47:42.652Z,9.57
2017-10-22T04:48:16.542Z,11.00
2017-10-22T04:48:50.427Z,9.82
2017-10-22T04:49:24.311Z,10.30
2017-10-22T04:49:58.197Z,9.65
2017-10-22T04:50:32.106Z,9.85
2017-10-22T04:51:05.981Z,11.27
2017-10-22T04:51:39.974Z,14.40
2017-10-22T04:52:13.859Z,14.43
2017-10-22T04:52:47.734Z,9.20
2017-10-22T04:53:21.623Z,8.10
2017-10-22T04:53:55.517Z,7.53
2017-10-22T04:54:29.631Z,7.85
2017-10-22T04:55:03.509Z,7.25
2017-10-22T04:55:37.386Z,8.60
2017-10-22T04:56:11.260Z,7.25
2017-10-22T04:56:45.160Z,7.28
2017-10-22T04:57:19.050Z,8.52
2017-10-22T04:57:52.909Z,7.70
2017-10-22T04:58:26.777Z,7.30
2017-10-22T04:59:00.947Z,7.07
2017-10-22T04:59:34.822Z,7.00
2017-10-22T05:00:08.707Z,7.82
2017-10-22T05:00:42.629Z,6.90
2017-10-22T05:01:16.531Z,7.25
2017-10-22T05:01:50.614Z,7.57
2017-10-22T05:02:24.479Z,8.20
2017-10-22T05:02:58.365Z,7.72
2017-10-22T05:03:32.235Z,8.00
2017-10-22T05:04:06.138Z,8.55
2017-10-22T05:04:40.026Z,9.05
2017-10-22T05:05:13.972Z,6.78
2017-10-22T05:05:47.849Z,7.50
2017-10-22T05:06:21.870Z,7.87
2017-10-22T05:06:55.757Z,6.95
2017-10-22T05:07:29.628Z,7.05
2017-10-22T05:08:03.501Z,7.50
2017-10-22T05:08:37.378Z,7.60
2017-10-22T05:09:11.451Z,7.30
2017-10-22T05:09:45.310Z,7.25
2017-10-22T05:10:19.227Z,6.72
2017-10-22T05:10:53.180Z,7.45
2017-10-22T05:11:27.067Z,7.50
2017-10-22T05:12:00.963Z,8.40
2017-10-22T05:12:34.821Z,7.20
2017-10-22T05:13:08.707Z,6.50
2017-10-22T05:13:42.596Z,7.07
2017-10-22T05:14:16.510Z,7.03
2017-10-22T05:14:50.392Z,7.87
2017-10-22T05:15:24.292Z,7.43
2017-10-22T05:15:58.190Z,7.32
2017-10-22T05:16:32.073Z,6.80
2017-10-22T05:17:05.944Z,7.35
2017-10-22T05:17:39.810Z,8.13
2017-10-22T05:18:13.687Z,7.40
2017-10-22T05:18:47.571Z,6.07
2017-10-22T05:19:21.457Z,8.32
2017-10-22T05:19:55.316Z,7.62
2017-10-22T05:20:29.203Z,7.65
2017-10-22T05:21:03.143Z,9.30
2017-10-22T05:21:37.018Z,7.85
2017-10-22T05:22:10.892Z,7.03
2017-10-22T05:22:44.777Z,7.75
2017-10-22T05:23:18.676Z,7.35
2017-10-22T05:23:52.616Z,7.97
2017-10-22T05:24:26.536Z,7.03
2017-10-22T05:25:00.396Z,8.35
2017-10-22T05:25:34.610Z,7.85
2017-10-22T05:26:09.122Z,7.37
2017-10-22T05:26:43.002Z,7.53
2017-10-22T05:27:16.903Z,6.57
2017-10-22T05:27:51.004Z,7.45
2017-10-22T05:28:25.031Z,6.93
2017-10-22T05:28:59.205Z,7.75
2017-10-22T05:29:33.105Z,8.20
2017-10-22T05:30:07.097Z,7.93
2017-10-22T05:30:40.979Z,6.85
2017-10-22T05:31:14.877Z,7.20
2017-10-22T05:31:48.745Z,7.75
2017-10-22T05:32:22.791Z,7.40
2017-10-22T05:32:56.661Z,6.53
2017-10-22T05:33:30.778Z,7.95
2017-10-22T05:34:04.692Z,7.50
2017-10-22T05:34:38.562Z,7.57
2017-10-22T05:35:12.434Z,7.60
2017-10-22T05:35:46.505Z,7.50
2017-10-22T05:36:20.391Z,7.20
2017-10-22T05:36:54.461Z,7.60
2017-10-22T05:37:28.365Z,7.72
2017-10-22T05:38:02.260Z,7.85
2017-10-22T05:38:36.126Z,8.50
2017-10-22T05:39:10.020Z,7.85
2017-10-22T05:39:43.950Z,7.47
2017-10-22T05:40:17.837Z,7.75
2017-10-22T05:40:51.712Z,6.50
2017-10-22T05:41:25.594Z,6.68
2017-10-22T05:41:59.492Z,7.30
2017-10-22T05:42:33.382Z,7.12
2017-10-22T05:43:07.243Z,6.95
2017-10-22T05:43:41.118Z,7.37
2017-10-22T05:44:14.985Z,7.00
2017-10-22T05:44:48.866Z,8.25
2017-10-22T05:45:22.751Z,7.25
2017-10-22T05:45:56.637Z,6.62
2017-10-22T05:46:30.783Z,6.95
2017-10-22T05:47:04.689Z,7.12
2017-10-22T05:47:38.604Z,6.47
2017-10-22T05:48:12.473Z,7.22
2017-10-22T05:48:46.441Z,6.95
2017-10-22T05:49:20.328Z,7.43
2017-10-22T05:49:54.214Z,7.10
2017-10-22T05:50:28.156Z,7.10
2017-10-22T05:51:02.046Z,7.35
2017-10-22T05:51:35.923Z,6.90
2017-10-22T05:52:09.864Z,7.18
2017-10-22T05:52:43.735Z,6.75
2017-10-22T05:53:17.731Z,6.55
2017-10-22T05:53:51.598Z,7.35
2017-10-22T05:54:25.477Z,6.82
2017-10-22T05:54:59.445Z,6.62
2017-10-22T05:55:33.324Z,6.20
2017-10-22T05:56:07.204Z,6.80
2017-10-22T05:56:41.090Z,6.90
2017-10-22T05:57:14.953Z,7.12
2017-10-22T05:57:48.809Z,6.25
2017-10-22T05:58:22.682Z,7.05
2017-10-22T05:58:56.544Z,7.05
2017-10-22T05:59:30.404Z,6.55
2017-10-22T06:00:04.282Z,6.10
2017-10-22T06:00:38.174Z,7.40
2017-10-22T06:01:12.042Z,6.43
2017-10-22T06:01:46.048Z,7.12
2017-10-22T06:02:19.981Z,5.72
2017-10-22T06:02:53.861Z,6.57
2017-10-22T06:03:27.735Z,6.80
2017-10-22T06:04:01.619Z,5.90
2017-10-22T06:04:35.497Z,6.03
2017-10-22T06:05:09.374Z,6.72
2017-10-22T06:05:43.245Z,6.00
2017-10-22T06:06:17.210Z,6.28
2017-10-22T06:06:51.096Z,6.50
2017-10-22T06:07:24.980Z,6.50
2017-10-22T06:07:58.858Z,6.03
2017-10-22T06:08:32.716Z,6.50
2017-10-22T06:09:06.794Z,6.50
2017-10-22T06:09:40.686Z,6.30
2017-10-22T06:10:14.560Z,7.47
2017-10-22T06:10:48.467Z,5.90
2017-10-22T06:11:22.486Z,5.65
2017-10-22T06:11:56.470Z,6.60
2017-10-22T06:12:30.346Z,5.93
2017-10-22T06:13:04.233Z,5.30
2017-10-22T06:13:38.125Z,5.80
2017-10-22T06:14:12.009Z,6.35
2017-10-22T06:14:45.880Z,6.10
2017-10-22T06:15:19.872Z,5.87
2017-10-22T06:15:53.841Z,5.50
2017-10-22T06:16:27.730Z,6.53
2017-10-22T06:17:01.640Z,5.05
2017-10-22T06:17:41.341Z,5.50
2017-10-22T06:18:15.364Z,5.22
2017-10-22T06:18:49.238Z,6.35
2017-10-22T06:19:23.281Z,5.20
2017-10-22T06:19:57.139Z,6.30
2017-10-22T06:20:30.991Z,5.95
2017-10-22T06:21:04.862Z,7.05
2017-10-22T06:21:38.730Z,5.80
2017-10-22T06:22:12.677Z,5.60
2017-10-22T06:22:46.550Z,5.10
2017-10-22T06:23:20.447Z,5.20
2017-10-22T06:23:54.306Z,5.60
2017-10-22T06:24:28.197Z,6.43
2017-10-22T06:25:02.077Z,6.18
2017-10-22T06:25:35.968Z,5.55
2017-10-22T06:26:10.101Z,5.10
2017-10-22T06:26:43.980Z,6.00
2017-10-22T06:27:17.859Z,5.12
2017-10-22T06:27:51.783Z,5.30
2017-10-22T06:28:25.658Z,5.55
2017-10-22T06:28:59.527Z,5.30
2017-10-22T06:29:33.392Z,5.37
2017-10-22T06:30:07.294Z,5.60
2017-10-22T06:30:41.163Z,5.30
2017-10-22T06:31:15.020Z,4.75
2017-10-22T06:31:48.886Z,5.10
2017-10-22T06:32:23.048Z,5.37
2017-10-22T06:32:56.911Z,4.57
2017-10-22T06:33:30.872Z,5.32
2017-10-22T06:34:04.762Z,5.75
2017-10-22T06:34:38.654Z,4.85
2017-10-22T06:35:12.522Z,5.57
2017-10-22T06:35:46.423Z,5.22
2017-10-22T06:36:20.377Z,5.60
2017-10-22T06:37:00.939Z,5.43
2017-10-22T06:37:34.815Z,5.05
2017-10-22T06:38:08.688Z,5.68
2017-10-22T06:38:42.569Z,5.30
2017-10-22T06:39:16.480Z,5.80
2017-10-22T06:39:50.356Z,5.00
2017-10-22T06:40:24.236Z,5.40
2017-10-22T06:40:58.096Z,5.20
2017-10-22T06:41:31.975Z,5.35
2017-10-22T06:42:05.853Z,5.25
2017-10-22T06:42:39.724Z,4.65
2017-10-22T06:43:13.715Z,4.35
2017-10-22T06:43:47.598Z,5.18
2017-10-22T06:44:21.474Z,4.75
2017-10-22T06:44:55.407Z,4.87
2017-10-22T06:45:29.263Z,6.12
2017-10-22T06:46:03.137Z,5.40
2017-10-22T06:46:36.999Z,4.80
2017-10-22T06:47:10.877Z,5.00
2017-10-22T06:47:44.781Z,5.32
2017-10-22T06:48:18.685Z,4.75
2017-10-22T06:48:52.572Z,6.03
2017-10-22T06:49:26.448Z,5.70
2017-10-22T06:50:00.321Z,4.70
2017-10-22T06:50:34.185Z,4.40
2017-10-22T06:51:08.052Z,4.87
2017-10-22T06:51:41.956Z,4.50
2017-10-22T06:52:15.842Z,4.62
2017-10-22T06:52:49.725Z,4.95
2017-10-22T06:53:23.759Z,5.20
2017-10-22T06:53:57.637Z,4.40
2017-10-22T06:54:31.655Z,4.60
2017-10-22T06:55:05.521Z,4.35
2017-10-22T06:55:39.372Z,4.93
2017-10-22T06:56:13.248Z,5.20
2017-10-22T06:56:47.114Z,5.10
2017-10-22T06:57:20.993Z,4.43
2017-10-22T06:57:54.875Z,4.97
2017-10-22T06:58:28.738Z,4.18
2017-10-22T06:59:02.681Z,6.15
2017-10-22T06:59:36.562Z,5.10
2017-10-22T07:00:10.415Z,5.00
2017-10-22T07:00:44.362Z,4.75
2017-10-22T07:01:18.247Z,5.28
2017-10-22T07:01:52.112Z,4.30
2017-10-22T07:02:25.981Z,4.30
2017-10-22T07:03:00.258Z,4.80
2017-10-22T07:03:34.135Z,5.00
2017-10-22T07:04:08.045Z,5.75
2017-10-22T07:04:41.909Z,5.12
2017-10-22T07:05:15.890Z,5.03
2017-10-22T07:05:49.759Z,6.00
2017-10-22T07:06:23.657Z,6.07
2017-10-22T07:06:57.533Z,4.78
2017-10-22T07:07:31.398Z,5.12
2017-10-22T07:08:05.280Z,5.28
2017-10-22T07:08:39.141Z,5.43
2017-10-22T07:09:13.012Z,5.93
2017-10-22T07:09:46.892Z,4.95
2017-10-22T07:10:20.805Z,5.28
2017-10-22T07:10:54.678Z,4.72
2017-10-22T07:11:28.555Z,4.75
2017-10-22T07:12:02.431Z,4.70
2017-10-22T07:12:36.305Z,5.00
2017-10-22T07:13:10.197Z,5.32
2017-10-22T07:13:44.064Z,4.65
2017-10-22T07:14:17.921Z,4.97
2017-10-22T07:14:51.796Z,4.37
2017-10-22T07:15:25.681Z,5.15
2017-10-22T07:15:59.547Z,5.07
2017-10-22T07:16:33.435Z,5.15
2017-10-22T07:17:07.333Z,4.90
2017-10-22T07:17:41.193Z,5.00
2017-10-22T07:18:15.076Z,4.55
2017-10-22T07:18:49.117Z,5.00
2017-10-22T07:19:22.991Z,4.97
2017-10-22T07:19:56.872Z,4.80
2017-10-22T07:20:30.932Z,5.15
2017-10-22T07:21:04.832Z,5.57
2017-10-22T07:21:38.921Z,4.80
2017-10-22T07:22:12.790Z,5.40
2017-10-22T07:22:46.801Z,4.50
2017-10-22T07:23:20.687Z,5.18
2017-10-22T07:23:54.576Z,4.60
2017-10-22T07:24:28.578Z,4.80